createdAt,value
2019-05-17T00:02:18.956Z,9.50
2019-05-17T00:04:47.025Z,9.60
2019-05-17T00:07:19.344Z,9.60
2019-05-17T00:09:47.882Z,9.60
2019-05-17T00:12:43.600Z,9.50
2019-05-17T00:15:11.558Z,9.50
2019-05-17T00:18:17.584Z,9.50
2019-05-17T00:20:46.536Z,9.50
2019-05-17T00:23:17.238Z,9.50
2019-05-17T00:25:46.861Z,9.50
2019-05-17T00:28:40.903Z,9.50
2019-05-17T00:31:08.831Z,9.50
2019-05-17T00:33:41.959Z,9.50
2019-05-17T00:36:09.908Z,9.50
2019-05-17T00:38:51.481Z,9.50
2019-05-17T00:41:17.944Z,9.50
2019-05-17T00:43:50.055Z,9.50
2019-05-17T00:46:18.073Z,9.50
2019-05-17T00:51:50.502Z,9.50
2019-05-17T00:54:18.471Z,9.50
2019-05-17T00:57:01.981Z,9.50
2019-05-17T00:59:29.924Z,9.50
2019-05-17T01:02:11.533Z,9.50
2019-05-17T01:04:39.461Z,9.50
2019-05-17T01:07:07.720Z,9.50
2019-05-17T01:09:36.663Z,9.50
2019-05-17T01:12:44.948Z,9.40
2019-05-17T01:15:13.427Z,9.40
2019-05-17T01:17:56.311Z,9.40
2019-05-17T01:20:24.229Z,9.40
2019-05-17T01:25:42.428Z,9.40
2019-05-17T01:28:10.383Z,9.40
2019-05-17T01:30:38.479Z,9.50
2019-05-17T01:33:06.764Z,9.50
2019-05-17T01:35:57.306Z,9.50
2019-05-17T01:38:26.972Z,9.50
2019-05-17T01:40:58.225Z,9.50
2019-05-17T01:43:27.335Z,9.40
2019-05-17T01:45:57.384Z,9.50
2019-05-17T01:48:27.067Z,9.50
2019-05-17T01:50:56.799Z,9.50
2019-05-17T01:53:26.884Z,9.50
2019-05-17T01:55:54.096Z,9.40
2019-05-17T01:58:33.480Z,9.40
2019-05-17T02:01:01.467Z,9.40
2019-05-17T02:03:41.569Z,9.40
2019-05-17T02:06:09.744Z,9.40
2019-05-17T02:08:37.669Z,9.40
2019-05-17T02:11:23.807Z,9.40
2019-05-17T02:13:51.753Z,9.40
2019-05-17T02:16:28.958Z,9.40
2019-05-17T02:18:57.301Z,9.30
2019-05-17T02:21:27.382Z,9.30
2019-05-17T02:23:57.017Z,9.30
2019-05-17T02:26:26.575Z,9.30
2019-05-17T02:29:12.974Z,9.30
2019-05-17T02:31:43.557Z,9.30
2019-05-17T02:34:13.909Z,9.30
2019-05-17T02:36:43.146Z,9.30
2019-05-17T02:42:09.044Z,9.30
2019-05-17T02:44:36.994Z,9.30
2019-05-17T02:47:06.027Z,9.30
2019-05-17T02:49:33.975Z,9.30
2019-05-17T02:52:03.273Z,9.30
2019-05-17T02:54:32.857Z,9.30
2019-05-17T02:57:34.900Z,9.30
2019-05-17T03:00:04.291Z,9.30
2019-05-17T03:02:34.113Z,9.30
2019-05-17T03:05:03.925Z,9.30
2019-05-17T03:08:08.996Z,9.30
2019-05-17T03:10:36.960Z,9.30
2019-05-17T03:13:23.549Z,9.30
2019-05-17T03:15:52.782Z,9.30
2019-05-17T03:18:22.932Z,9.30
2019-05-17T03:24:02.901Z,9.30
2019-05-17T03:26:32.919Z,9.30
2019-05-17T03:29:03.320Z,9.30
2019-05-17T03:31:41.781Z,9.30
2019-05-17T03:34:06.598Z,9.30
2019-05-17T03:39:36.752Z,9.30
2019-05-17T03:42:04.677Z,9.30
2019-05-17T03:44:47.805Z,9.30
2019-05-17T03:47:15.744Z,9.30
2019-05-17T03:50:03.273Z,9.30
2019-05-17T03:52:53.286Z,9.30
2019-05-17T03:55:19.252Z,9.30
2019-05-17T03:58:02.643Z,9.30
2019-05-17T04:00:29.112Z,9.30
2019-05-17T04:03:03.075Z,9.30
2019-05-17T04:05:33.079Z,9.40
2019-05-17T04:08:03.038Z,9.40
2019-05-17T04:10:36.543Z,9.40
2019-05-17T04:13:04.744Z,9.40
2019-05-17T04:15:35.774Z,9.40
2019-05-17T04:18:04.478Z,9.40
2019-05-17T04:20:33.539Z,9.50
2019-05-17T04:23:04.048Z,9.50
2019-05-17T04:25:33.473Z,9.50
2019-05-17T04:30:52.838Z,9.50
2019-05-17T04:33:23.329Z,9.50
2019-05-17T04:36:22.511Z,9.60
2019-05-17T04:38:52.594Z,9.60
2019-05-17T04:41:45.566Z,9.70
2019-05-17T04:44:08.282Z,9.70
2019-05-17T04:46:43.087Z,9.70
2019-05-17T04:49:13.790Z,9.70
2019-05-17T04:51:43.992Z,9.80
2019-05-17T04:54:13.712Z,9.80
2019-05-17T04:56:48.396Z,9.80
2019-05-17T04:59:16.360Z,9.80
2019-05-17T05:01:44.337Z,9.90
2019-05-17T05:04:15.569Z,9.90
2019-05-17T05:06:43.664Z,10.00
2019-05-17T05:09:12.707Z,10.00
2019-05-17T05:11:59.483Z,10.00
2019-05-17T05:14:14.588Z,10.10
2019-05-17T05:16:45.649Z,10.00
2019-05-17T05:19:13.610Z,10.10
2019-05-17T05:21:44.612Z,10.10
2019-05-17T05:24:12.596Z,10.10
2019-05-17T05:26:43.849Z,10.20
2019-05-17T05:29:12.771Z,10.20
2019-05-17T05:31:42.749Z,10.30
2019-05-17T05:34:12.397Z,10.30
2019-05-17T05:36:41.876Z,10.30
2019-05-17T05:39:23.137Z,10.40
2019-05-17T05:41:51.831Z,10.40
2019-05-17T05:47:17.683Z,10.40
2019-05-17T05:49:45.661Z,10.50
2019-05-17T05:52:16.959Z,10.50
2019-05-17T05:54:44.933Z,10.50
2019-05-17T05:57:13.931Z,10.50
2019-05-17T05:59:42.684Z,10.50
2019-05-17T06:02:12.327Z,10.50
2019-05-17T06:04:42.340Z,10.60
2019-05-17T06:13:32.358Z,10.90
2019-05-17T06:16:02.401Z,11.00
2019-05-17T06:18:31.972Z,11.10
2019-05-17T06:21:02.678Z,11.10
2019-05-17T06:23:31.586Z,11.20
2019-05-17T06:25:59.427Z,11.20
2019-05-17T06:28:31.859Z,11.20
2019-05-17T06:31:02.636Z,11.30
2019-05-17T06:33:41.994Z,11.30
2019-05-17T06:36:08.955Z,11.40
2019-05-17T06:38:53.659Z,11.40
2019-05-17T06:41:21.677Z,11.30
2019-05-17T06:44:12.168Z,11.30
2019-05-17T06:46:41.901Z,11.30
2019-05-17T06:49:12.479Z,11.30
2019-05-17T06:51:42.373Z,11.30
2019-05-17T06:54:11.960Z,11.40
2019-05-17T06:56:41.817Z,11.50
2019-05-17T06:59:24.398Z,11.60
2019-05-17T07:01:52.358Z,11.80
2019-05-17T07:04:45.622Z,11.90
2019-05-17T07:07:30.963Z,12.00
2019-05-17T07:10:00.496Z,12.10
2019-05-17T07:15:24.632Z,12.10
2019-05-17T07:17:52.559Z,12.20
2019-05-17T07:20:20.843Z,12.20
2019-05-17T07:22:50.688Z,12.30
2019-05-17T07:25:19.779Z,12.40
2019-05-17T07:27:50.105Z,12.40
2019-05-17T07:30:42.803Z,12.30
2019-05-17T07:33:10.771Z,12.30
2019-05-17T07:35:55.995Z,12.10
2019-05-17T07:38:23.963Z,12.10
2019-05-17T07:40:52.078Z,12.30
2019-05-17T07:43:20.753Z,12.50
2019-05-17T07:46:14.014Z,12.70
2019-05-17T07:48:41.983Z,12.90
2019-05-17T07:51:11.003Z,13.00
2019-05-17T07:53:40.059Z,13.10
2019-05-17T07:56:10.279Z,13.10
2019-05-17T07:58:40.413Z,13.00
2019-05-17T08:01:10.075Z,13.00
2019-05-17T08:03:40.353Z,13.10
2019-05-17T08:06:07.384Z,13.00
2019-05-17T08:08:40.927Z,13.00
2019-05-17T08:11:30.368Z,13.00
2019-05-17T08:13:59.794Z,13.00
2019-05-17T08:16:30.232Z,13.00
2019-05-17T08:19:01.701Z,13.10
2019-05-17T08:21:30.477Z,13.20
2019-05-17T08:24:00.045Z,13.50
2019-05-17T08:26:43.531Z,13.80
2019-05-17T08:29:11.484Z,14.10
2019-05-17T08:31:40.373Z,14.40
2019-05-17T08:34:10.404Z,14.80
2019-05-17T08:36:40.536Z,15.20
2019-05-17T08:39:10.325Z,15.50
2019-05-17T08:41:40.459Z,15.70
2019-05-17T08:44:10.039Z,15.90
2019-05-17T08:46:47.147Z,15.90
2019-05-17T08:49:15.073Z,15.70
2019-05-17T08:51:43.140Z,15.60
2019-05-17T08:54:11.160Z,15.60
2019-05-17T08:56:40.239Z,15.70
2019-05-17T08:59:09.609Z,15.70
2019-05-17T09:01:43.630Z,15.70
2019-05-17T09:04:11.600Z,15.60
2019-05-17T09:06:50.494Z,15.70
2019-05-17T09:09:20.402Z,15.70
2019-05-17T09:11:54.432Z,15.90
2019-05-17T09:14:22.525Z,16.00
2019-05-17T09:16:50.593Z,16.10
2019-05-17T09:19:19.451Z,16.00
2019-05-17T09:21:47.517Z,16.10
2019-05-17T09:24:15.468Z,16.10
2019-05-17T09:26:49.184Z,16.00
2019-05-17T09:29:16.682Z,15.90
2019-05-17T09:31:44.650Z,15.80
2019-05-17T09:34:43.002Z,15.80
2019-05-17T09:37:11.022Z,15.90
2019-05-17T09:39:59.686Z,15.90
2019-05-17T09:42:29.867Z,16.00
2019-05-17T09:45:01.832Z,16.20
2019-05-17T09:47:30.182Z,16.40
2019-05-17T09:50:00.285Z,16.30
2019-05-17T09:52:29.331Z,16.00
2019-05-17T09:55:01.795Z,16.00
2019-05-17T09:57:29.883Z,15.70
2019-05-17T10:00:00.059Z,15.50
2019-05-17T10:02:28.640Z,15.50
2019-05-17T10:04:56.571Z,15.50
2019-05-17T10:07:33.139Z,15.70
2019-05-17T10:10:01.207Z,15.80
2019-05-17T10:15:25.513Z,15.90
2019-05-17T10:17:53.468Z,15.70
2019-05-17T10:20:33.949Z,15.50
2019-05-17T10:23:01.886Z,15.40
2019-05-17T10:25:29.994Z,15.30
2019-05-17T10:28:20.969Z,15.20
2019-05-17T10:30:52.361Z,15.00
2019-05-17T10:33:25.731Z,15.00
2019-05-17T10:35:53.721Z,15.00
2019-05-17T10:38:21.686Z,15.00
2019-05-17T10:40:55.791Z,15.00
2019-05-17T10:43:23.764Z,15.00
2019-05-17T10:45:51.694Z,14.90
2019-05-17T10:48:34.022Z,14.90
2019-05-17T10:51:01.956Z,14.90
2019-05-17T10:53:29.970Z,14.90
2019-05-17T10:56:19.444Z,14.60
2019-05-17T10:58:49.229Z,14.40
2019-05-17T11:01:16.519Z,14.30
2019-05-17T11:03:53.727Z,14.20
2019-05-17T11:06:21.658Z,14.10
2019-05-17T11:08:50.170Z,14.10
2019-05-17T11:11:30.384Z,14.10
2019-05-17T11:13:58.317Z,14.10
2019-05-17T11:16:26.346Z,14.10
2019-05-17T11:18:54.269Z,14.00
2019-05-17T11:21:22.263Z,14.00
2019-05-17T11:24:22.961Z,14.00
2019-05-17T11:26:50.954Z,14.10
2019-05-17T11:29:37.048Z,14.20
2019-05-17T11:32:05.140Z,14.20
2019-05-17T11:34:33.072Z,14.30
2019-05-17T11:37:01.042Z,14.30
2019-05-17T11:39:29.003Z,14.40
2019-05-17T11:41:56.939Z,14.50
2019-05-17T11:44:24.982Z,14.60
2019-05-17T11:46:52.993Z,14.70
2019-05-17T11:49:20.971Z,14.90
2019-05-17T11:51:48.954Z,15.10
2019-05-17T11:54:16.915Z,15.20
2019-05-17T11:56:44.858Z,15.50
2019-05-17T11:59:12.911Z,15.80
2019-05-17T12:01:40.941Z,16.00
2019-05-17T12:04:08.947Z,16.30
2019-05-17T12:06:36.913Z,16.60
2019-05-17T12:09:05.760Z,16.70
2019-05-17T12:11:37.154Z,16.80
2019-05-17T12:14:05.097Z,16.90
2019-05-17T12:16:33.092Z,16.80
2019-05-17T12:19:01.022Z,16.70
2019-05-17T12:21:29.048Z,16.60
2019-05-17T12:23:56.987Z,16.70
2019-05-17T12:26:24.933Z,16.70
2019-05-17T12:28:53.014Z,16.70
2019-05-17T12:31:20.970Z,16.90
2019-05-17T12:33:48.944Z,17.50
2019-05-17T12:36:16.915Z,18.00
2019-05-17T12:38:44.900Z,18.30
2019-05-17T12:41:18.817Z,18.70
2019-05-17T12:43:46.847Z,18.90
2019-05-17T12:46:15.918Z,18.60
2019-05-17T12:48:43.999Z,18.70
2019-05-17T12:51:14.430Z,18.60
2019-05-17T12:53:42.368Z,18.30
2019-05-17T12:56:10.441Z,18.00
2019-05-17T12:58:40.497Z,17.90
2019-05-17T13:01:08.449Z,17.80
2019-05-17T13:03:59.208Z,18.10
2019-05-17T13:06:27.171Z,18.30
2019-05-17T13:08:55.102Z,18.20
2019-05-17T13:11:23.146Z,18.10
2019-05-17T13:13:58.415Z,17.80
2019-05-17T13:16:26.393Z,17.60
2019-05-17T13:18:54.352Z,17.30
2019-05-17T13:21:22.443Z,17.10
2019-05-17T13:23:50.414Z,17.10
2019-05-17T13:26:18.405Z,16.90
2019-05-17T13:28:48.382Z,16.70
2019-05-17T13:31:16.452Z,16.50
2019-05-17T13:33:44.419Z,16.50
2019-05-17T13:36:12.399Z,16.50
2019-05-17T13:38:40.364Z,16.60
2019-05-17T13:41:08.338Z,16.70
2019-05-17T13:43:36.311Z,16.80
2019-05-17T13:46:06.334Z,16.70
2019-05-17T13:48:34.279Z,16.90
2019-05-17T13:51:04.195Z,17.00
2019-05-17T13:53:32.188Z,17.00
2019-05-17T13:56:09.600Z,16.90
2019-05-17T13:58:56.891Z,16.80
2019-05-17T14:01:25.865Z,16.90
2019-05-17T14:03:53.858Z,16.80
2019-05-17T14:06:21.829Z,16.70
2019-05-17T14:08:50.642Z,16.60
2019-05-17T14:11:29.172Z,16.80
2019-05-17T14:13:57.377Z,16.90
2019-05-17T14:16:34.315Z,17.10
2019-05-17T14:19:01.178Z,17.00
2019-05-17T14:21:39.566Z,17.10
2019-05-17T14:24:07.533Z,17.20
2019-05-17T14:26:47.591Z,17.30
2019-05-17T14:29:15.569Z,17.30
2019-05-17T14:31:50.959Z,17.10
2019-05-17T14:34:18.897Z,17.00
2019-05-17T14:36:46.944Z,16.90
2019-05-17T14:39:14.915Z,16.70
2019-05-17T14:41:47.865Z,16.70
2019-05-17T14:44:15.853Z,16.50
2019-05-17T14:46:43.778Z,16.50
2019-05-17T14:49:11.767Z,16.40
2019-05-17T14:51:47.247Z,16.30
2019-05-17T14:54:15.321Z,16.10
2019-05-17T14:56:45.314Z,16.00
2019-05-17T14:59:13.254Z,15.90
2019-05-17T15:01:41.235Z,15.80
2019-05-17T15:04:09.266Z,15.70
2019-05-17T15:06:42.214Z,15.60
2019-05-17T15:09:11.675Z,15.60
2019-05-17T15:11:40.004Z,15.60
2019-05-17T15:14:08.962Z,15.60
2019-05-17T15:16:36.929Z,15.60
2019-05-17T15:19:04.872Z,15.60
2019-05-17T15:21:32.891Z,15.60
2019-05-17T15:24:00.861Z,15.50
2019-05-17T15:26:28.811Z,15.50
2019-05-17T15:29:15.007Z,15.50
2019-05-17T15:31:42.948Z,15.50
2019-05-17T15:34:10.943Z,15.50
2019-05-17T15:36:57.389Z,15.60
2019-05-17T15:39:25.378Z,15.60
2019-05-17T15:41:53.319Z,15.70
2019-05-17T15:44:33.695Z,15.70
2019-05-17T15:47:01.627Z,15.80
2019-05-17T15:49:29.571Z,15.80
2019-05-17T15:51:57.730Z,15.70
2019-05-17T15:54:25.811Z,15.60
2019-05-17T15:56:53.762Z,15.60
2019-05-17T15:59:30.909Z,15.60
2019-05-17T16:02:05.761Z,15.60
2019-05-17T16:04:33.945Z,15.60
2019-05-17T16:07:05.138Z,15.50
2019-05-17T16:09:47.586Z,15.50
2019-05-17T16:12:15.561Z,15.50
2019-05-17T16:14:43.540Z,15.40
2019-05-17T16:17:28.069Z,15.30
2019-05-17T16:19:55.994Z,15.20
2019-05-17T16:22:24.040Z,15.20
2019-05-17T16:25:14.121Z,15.10
2019-05-17T16:27:42.134Z,15.00
2019-05-17T16:30:15.764Z,15.00
2019-05-17T16:33:17.075Z,14.90
2019-05-17T16:35:45.012Z,15.00
2019-05-17T16:38:13.035Z,14.90
2019-05-17T16:40:40.981Z,14.90
2019-05-17T16:43:32.154Z,14.90
2019-05-17T16:46:00.073Z,14.90
2019-05-17T16:48:30.156Z,14.90
2019-05-17T16:50:58.087Z,14.90
2019-05-17T16:53:27.162Z,14.90
2019-05-17T16:55:55.219Z,14.80
2019-05-17T16:58:23.285Z,14.90
2019-05-17T17:00:54.349Z,14.90
2019-05-17T17:03:22.333Z,14.80
2019-05-17T17:05:50.505Z,14.80
2019-05-17T17:08:18.441Z,14.80
2019-05-17T17:13:50.035Z,14.80
2019-05-17T17:16:17.984Z,14.80
2019-05-17T17:18:52.999Z,14.80
2019-05-17T17:21:20.963Z,14.80
2019-05-17T17:23:49.054Z,14.80
2019-05-17T17:26:17.060Z,14.70
2019-05-17T17:28:49.381Z,14.70
2019-05-17T17:31:17.450Z,14.70
2019-05-17T17:33:45.514Z,14.70
2019-05-17T17:36:13.543Z,14.70
2019-05-17T17:38:52.873Z,14.70
2019-05-17T17:41:20.867Z,14.60
2019-05-17T17:43:58.973Z,14.70
2019-05-17T17:46:25.993Z,14.60
2019-05-17T17:48:55.200Z,14.60
2019-05-17T17:51:23.360Z,14.60
2019-05-17T17:53:51.290Z,14.60
2019-05-17T17:56:22.482Z,14.60
2019-05-17T17:58:50.423Z,14.50
2019-05-17T18:01:18.614Z,14.50
2019-05-17T18:03:46.539Z,14.50
2019-05-17T18:06:23.549Z,14.50
2019-05-17T18:08:51.524Z,14.40
2019-05-17T18:11:19.470Z,14.40
2019-05-17T18:13:47.456Z,14.40
2019-05-17T18:16:27.405Z,14.30
2019-05-17T18:18:55.447Z,14.30
2019-05-17T18:21:24.521Z,14.30
2019-05-17T18:23:52.512Z,14.30
2019-05-17T18:26:21.506Z,14.20
2019-05-17T18:28:49.554Z,14.20
2019-05-17T18:31:21.624Z,14.10
2019-05-17T18:33:49.609Z,14.00
2019-05-17T18:36:19.732Z,14.00
2019-05-17T18:38:49.460Z,13.90
2019-05-17T18:41:18.080Z,13.80
2019-05-17T18:43:46.138Z,13.70
2019-05-17T18:46:14.515Z,13.60
2019-05-17T18:48:43.221Z,13.50
2019-05-17T18:51:15.006Z,13.40
2019-05-17T18:53:43.877Z,13.30
2019-05-17T18:56:17.459Z,13.20
2019-05-17T18:58:45.549Z,13.10
2019-05-17T19:01:32.877Z,13.00
2019-05-17T19:04:05.616Z,12.90
2019-05-17T19:06:33.549Z,12.80
2019-05-17T19:09:25.466Z,12.80
2019-05-17T19:11:53.489Z,12.70
2019-05-17T19:14:21.483Z,12.60
2019-05-17T19:19:42.174Z,12.40
2019-05-17T19:22:10.132Z,12.40
2019-05-17T19:24:44.150Z,12.30
2019-05-17T19:27:12.165Z,12.30
2019-05-17T19:29:43.215Z,12.20
2019-05-17T19:32:10.989Z,12.10
2019-05-17T19:34:38.996Z,12.00
2019-05-17T19:37:07.098Z,11.90
2019-05-17T19:39:36.195Z,11.80
2019-05-17T19:42:04.155Z,11.80
2019-05-17T19:44:32.215Z,11.70
2019-05-17T19:47:00.208Z,11.70
2019-05-17T19:52:26.000Z,11.60
2019-05-17T19:54:53.931Z,11.60
2019-05-17T19:57:22.290Z,11.50
2019-05-17T19:59:50.222Z,11.50
2019-05-17T20:02:19.274Z,11.40
2019-05-17T20:04:47.706Z,11.40
2019-05-17T20:07:17.821Z,11.30
2019-05-17T20:09:45.920Z,11.30
2019-05-17T20:12:14.133Z,11.20
2019-05-17T20:14:42.162Z,11.20
2019-05-17T20:17:15.742Z,11.10
2019-05-17T20:19:44.154Z,11.00
2019-05-17T20:22:12.145Z,10.90
2019-05-17T20:24:40.181Z,10.90
2019-05-17T20:27:10.199Z,10.80
2019-05-17T20:29:38.316Z,10.70
2019-05-17T20:32:11.525Z,10.70
2019-05-17T20:34:39.447Z,10.60
2019-05-17T20:37:07.480Z,10.50
2019-05-17T20:39:35.434Z,10.50
2019-05-17T20:42:03.501Z,10.40
2019-05-17T20:44:31.463Z,10.30
2019-05-17T20:46:59.449Z,10.20
2019-05-17T20:49:27.429Z,10.10
2019-05-17T20:51:55.390Z,10.10
2019-05-17T20:54:25.414Z,10.00
2019-05-17T20:57:03.942Z,10.00
2019-05-17T20:59:31.910Z,9.90
2019-05-17T21:02:19.288Z,9.90
2019-05-17T21:04:49.344Z,9.90
2019-05-17T21:07:17.302Z,9.80
2019-05-17T21:09:46.251Z,9.80
2019-05-17T21:12:14.218Z,9.70
2019-05-17T21:14:47.403Z,9.70
2019-05-17T21:17:15.373Z,9.70
2019-05-17T21:19:43.345Z,9.70
2019-05-17T21:22:11.307Z,9.70
2019-05-17T21:24:39.392Z,9.60
2019-05-17T21:27:07.401Z,9.60
2019-05-17T21:29:40.561Z,9.50
2019-05-17T21:32:08.612Z,9.50
2019-05-17T21:34:38.856Z,9.40
2019-05-17T21:37:06.786Z,9.40
2019-05-17T21:39:34.822Z,9.30
2019-05-17T21:42:02.782Z,9.30
2019-05-17T21:44:31.853Z,9.20
2019-05-17T21:47:04.588Z,9.20
2019-05-17T21:49:29.496Z,9.20
2019-05-17T21:51:57.420Z,9.10
2019-05-17T21:54:30.809Z,9.10
2019-05-17T21:56:58.849Z,9.10
2019-05-17T21:59:39.749Z,9.10
2019-05-17T22:02:07.749Z,9.00
2019-05-17T22:04:35.834Z,9.00
2019-05-17T22:07:08.065Z,9.00
2019-05-17T22:09:36.089Z,8.90
2019-05-17T22:12:09.141Z,8.90
2019-05-17T22:14:37.072Z,8.90
2019-05-17T22:17:05.170Z,8.90
2019-05-17T22:19:33.122Z,8.90
2019-05-17T22:22:06.274Z,8.90
2019-05-17T22:24:34.197Z,8.80
2019-05-17T22:27:02.218Z,8.80
2019-05-17T22:29:30.180Z,8.80
2019-05-17T22:31:58.162Z,8.70
2019-05-17T22:34:26.122Z,8.70
2019-05-17T22:36:54.135Z,8.70
2019-05-17T22:39:22.173Z,8.70
2019-05-17T22:41:50.860Z,8.70
2019-05-17T22:44:18.875Z,8.80
2019-05-17T22:46:46.957Z,8.90
2019-05-17T22:49:14.874Z,8.90
2019-05-17T22:51:42.960Z,9.00
2019-05-17T22:54:10.983Z,9.00
2019-05-17T23:02:28.924Z,9.10
2019-05-17T23:04:56.962Z,9.00
2019-05-17T23:07:24.995Z,9.00
2019-05-17T23:09:52.950Z,9.00
2019-05-17T23:12:24.033Z,9.00
2019-05-17T23:14:51.970Z,9.00
2019-05-17T23:17:28.266Z,9.00
2019-05-17T23:19:56.255Z,9.00
2019-05-17T23:22:25.230Z,9.00
2019-05-17T23:24:53.312Z,8.90
2019-05-17T23:27:21.264Z,8.90
2019-05-17T23:29:49.204Z,8.80
2019-05-17T23:32:32.861Z,8.80
2019-05-17T23:35:00.877Z,8.70
2019-05-17T23:37:28.824Z,8.70
2019-05-17T23:40:17.888Z,8.70
2019-05-17T23:42:45.903Z,8.60
2019-05-17T23:45:14.846Z,8.60
2019-05-17T23:47:42.962Z,8.60
2019-05-17T23:50:11.025Z,8.60
2019-05-17T23:52:39.066Z,8.50
2019-05-17T23:55:29.180Z,8.50
2019-05-17T23:57:57.189Z,8.50
